Time;durP1;ratioP1;P1;durP2;ratioP2;P2;SDS_P1;SDS_P2;PMS_P1;PMS_P2;Temp;Humidity;BMP_temperature;BMP_pressure;BME280_temperature;BME280_humidity;BME280_pressure;Samples;Min_cycle;Max_cycle;Signal;HPM_P1;HPM_P2
2022/11/15 00:00:12;;;;;;;78.40;38.90;;;5.40;99.90;;;;;;5181194;28;20250;-50
2022/11/15 00:02:42;;;;;;;78.30;39.50;;;5.40;99.90;;;;;;5174938;28;20655;-49
2022/11/15 00:05:13;;;;;;;69.20;37.47;;;5.40;99.90;;;;;;5173791;28;20195;-48
2022/11/15 00:07:43;;;;;;;76.60;38.70;;;5.40;99.90;;;;;;5175711;28;20202;-50
2022/11/15 00:10:14;;;;;;;66.20;37.10;;;5.40;99.90;;;;;;5175818;28;20264;-49
2022/11/15 00:12:45;;;;;;;63.93;38.27;;;5.30;99.90;;;;;;5182601;28;20207;-49
2022/11/15 00:15:16;;;;;;;71.33;37.80;;;5.40;99.90;;;;;;5184145;28;20215;-50
2022/11/15 00:17:49;;;;;;;79.83;38.77;;;5.30;99.90;;;;;;5180163;28;20670;-49
2022/11/15 00:20:19;;;;;;;72.10;39.47;;;5.30;99.90;;;;;;5179513;28;20229;-49
2022/11/15 00:22:50;;;;;;;73.97;39.53;;;5.30;99.90;;;;;;5177652;28;21002;-50
2022/11/15 00:25:21;;;;;;;77.20;38.60;;;5.30;99.90;;;;;;5183023;28;20187;-50
2022/11/15 00:27:56;;;;;;;67.60;38.00;;;5.30;99.90;;;;;;5183727;28;20694;-48
2022/11/15 00:30:27;;;;;;;73.27;37.27;;;5.30;99.90;;;;;;5181100;28;20253;-49
2022/11/15 00:33:05;;;;;;;72.10;39.50;;;5.30;99.90;;;;;;5183566;28;20449;-51
2022/11/15 00:35:36;;;;;;;70.53;38.17;;;5.30;99.90;;;;;;5181916;28;20474;-49
2022/11/15 00:38:06;;;;;;;77.73;39.47;;;5.30;99.90;;;;;;5187233;28;20937;-48
2022/11/15 00:40:37;;;;;;;82.33;40.37;;;5.20;99.90;;;;;;5185377;28;20729;-51
2022/11/15 00:43:08;;;;;;;69.87;38.23;;;5.20;99.90;;;;;;5187059;28;20187;-49
2022/11/15 00:45:38;;;;;;;67.20;37.10;;;5.20;99.90;;;;;;5187355;28;20210;-51
2022/11/15 00:48:09;;;;;;;76.10;38.07;;;5.20;99.90;;;;;;5187157;28;20201;-50
2022/11/15 00:50:40;;;;;;;72.80;38.13;;;5.20;99.90;;;;;;5183808;28;20576;-48
2022/11/15 00:53:11;;;;;;;77.77;38.33;;;5.20;99.90;;;;;;5186878;28;20437;-48
2022/11/15 00:55:41;;;;;;;74.83;38.03;;;5.20;99.90;;;;;;5189881;28;20643;-48
2022/11/15 00:58:12;;;;;;;67.37;36.87;;;5.20;99.90;;;;;;5184542;28;20188;-47
2022/11/15 01:00:43;;;;;;;88.73;41.57;;;5.10;99.90;;;;;;5184802;28;20589;-51
2022/11/15 01:03:13;;;;;;;66.37;37.17;;;5.10;99.90;;;;;;5177228;28;20183;-48
2022/11/15 01:05:44;;;;;;;76.50;39.43;;;5.00;99.90;;;;;;5186584;28;20187;-50
2022/11/15 01:08:16;;;;;;;72.23;40.33;;;5.10;99.90;;;;;;5184675;28;20729;-49
2022/11/15 01:10:46;;;;;;;76.97;39.80;;;5.10;99.90;;;;;;5182770;28;20632;-49
2022/11/15 01:13:17;;;;;;;78.13;39.43;;;5.00;99.90;;;;;;5182729;28;20474;-50
2022/11/15 01:15:47;;;;;;;78.90;38.93;;;5.10;99.90;;;;;;5185103;28;20215;-48
2022/11/15 01:18:18;;;;;;;83.93;42.50;;;5.10;99.90;;;;;;5180414;28;20185;-49
2022/11/15 01:20:49;;;;;;;68.47;38.50;;;5.00;99.90;;;;;;5176960;28;20592;-49
2022/11/15 01:23:19;;;;;;;81.27;42.50;;;5.00;99.90;;;;;;5176745;28;20194;-48
2022/11/15 01:25:50;;;;;;;82.23;41.07;;;5.00;99.90;;;;;;5181955;28;20215;-49
2022/11/15 01:28:20;;;;;;;81.10;39.30;;;5.00;99.90;;;;;;5179430;28;20523;-49
2022/11/15 01:30:51;;;;;;;86.93;40.00;;;5.00;99.90;;;;;;5185438;28;20211;-48
2022/11/15 01:33:22;;;;;;;81.00;39.57;;;5.00;99.90;;;;;;5186557;28;20237;-47
2022/11/15 01:35:52;;;;;;;79.33;41.97;;;4.90;99.90;;;;;;5183157;28;20558;-48
2022/11/15 01:38:23;;;;;;;73.93;40.40;;;4.90;99.90;;;;;;5182086;28;20188;-49
2022/11/15 01:40:53;;;;;;;83.27;41.80;;;4.90;99.90;;;;;;5184065;28;20211;-49
2022/11/15 01:43:28;;;;;;;79.80;41.90;;;4.90;99.90;;;;;;5182341;28;20552;-48
2022/11/15 01:46:21;;;;;;;74.60;37.73;;;4.90;99.90;;;;;;5185472;28;20221;-49
2022/11/15 01:48:56;;;;;;;83.00;39.80;;;4.90;99.90;;;;;;5172911;28;20441;-47
2022/11/15 01:51:31;;;;;;;72.77;38.20;;;4.90;99.90;;;;;;5199921;28;20460;-49
2022/11/15 01:54:07;;;;;;;69.70;39.90;;;4.90;99.90;;;;;;5181301;28;20936;-50
2022/11/15 01:56:44;;;;;;;84.93;42.97;;;4.80;99.90;;;;;;5185297;28;20457;-48
2022/11/15 01:59:15;;;;;;;83.80;41.27;;;4.80;99.90;;;;;;5183124;28;20444;-48
2022/11/15 02:01:46;;;;;;;86.77;43.07;;;4.80;99.90;;;;;;5179611;28;20800;-48
2022/11/15 02:04:26;;;;;;;76.40;42.10;;;4.80;99.90;;;;;;5178908;28;20205;-49
2022/11/15 02:06:58;;;;;;;79.60;41.13;;;4.80;99.90;;;;;;5181693;28;20442;-48
2022/11/15 02:09:29;;;;;;;90.57;43.50;;;4.80;99.90;;;;;;5185236;28;20424;-51
2022/11/15 02:12:00;;;;;;;86.67;42.90;;;4.80;99.90;;;;;;5182114;28;20973;-52
2022/11/15 02:14:31;;;;;;;79.00;41.00;;;4.80;99.90;;;;;;5184692;28;20504;-51
2022/11/15 02:17:12;;;;;;;85.23;39.97;;;4.80;99.90;;;;;;5177766;28;21075;-50
2022/11/15 02:19:54;;;;;;;75.57;41.17;;;4.80;99.90;;;;;;5181038;28;20472;-52
2022/11/15 02:23:01;;;;;;;84.73;41.60;;;4.70;99.90;;;;;;5180800;28;20939;-51
2022/11/15 02:25:57;;;;;;;80.33;41.47;;;4.80;99.90;;;;;;5185425;28;20455;-50
2022/11/15 02:28:55;;;;;;;74.60;41.03;;;4.80;99.90;;;;;;5182576;28;20561;-51
2022/11/15 02:31:43;;;;;;;77.03;38.73;;;4.70;99.90;;;;;;5174316;28;20488;-50
2022/11/15 02:34:34;;;;;;;82.67;42.80;;;4.70;99.90;;;;;;5182754;28;20474;-50
2022/11/15 02:37:17;;;;;;;70.70;41.30;;;4.70;99.90;;;;;;5180089;28;20422;-50
2022/11/15 02:40:02;;;;;;;90.90;42.27;;;4.70;99.90;;;;;;5181893;28;20440;-50
2022/11/15 02:45:46;;;;;;;83.23;41.37;;;4.70;99.90;;;;;;5180132;28;20499;-51
2022/11/15 02:48:17;;;;;;;84.47;42.53;;;4.80;99.90;;;;;;5184272;28;20973;-50
2022/11/15 02:50:48;;;;;;;75.90;39.50;;;4.70;99.90;;;;;;5173856;28;20463;-53
2022/11/15 02:53:24;;;;;;;75.87;38.90;;;4.70;99.90;;;;;;5180036;28;20848;-52
2022/11/15 02:55:57;;;;;;;83.70;41.33;;;4.70;99.90;;;;;;5177315;28;20490;-51
2022/11/15 02:58:31;;;;;;;81.20;43.40;;;4.70;99.90;;;;;;5181592;28;20445;-51
2022/11/15 03:01:22;;;;;;;80.53;41.93;;;4.70;99.90;;;;;;5184119;28;20449;-52
2022/11/15 03:04:08;;;;;;;88.47;42.27;;;4.80;99.90;;;;;;5183019;28;20433;-51
2022/11/15 03:06:49;;;;;;;76.60;40.40;;;4.80;99.90;;;;;;5180152;28;20419;-53
2022/11/15 03:09:31;;;;;;;77.03;40.80;;;4.80;99.90;;;;;;5177935;28;20533;-51
2022/11/15 03:12:13;;;;;;;81.53;39.80;;;4.70;99.90;;;;;;5176264;28;20923;-49
2022/11/15 03:14:54;;;;;;;79.87;41.87;;;4.70;99.90;;;;;;5172952;28;20465;-49
2022/11/15 03:17:40;;;;;;;71.03;38.07;;;4.70;99.90;;;;;;5175512;28;20457;-47
2022/11/15 03:20:14;;;;;;;86.47;42.80;;;4.70;99.90;;;;;;5182923;28;20673;-48
2022/11/15 03:22:47;;;;;;;75.90;40.73;;;4.70;99.90;;;;;;5184582;28;20441;-49
2022/11/15 03:25:22;;;;;;;83.73;40.57;;;4.70;99.90;;;;;;5183872;28;20474;-49
2022/11/15 03:27:57;;;;;;;96.60;42.20;;;4.80;99.90;;;;;;5183203;28;20436;-49
2022/11/15 03:30:30;;;;;;;74.93;39.03;;;4.80;99.90;;;;;;5183457;28;20606;-48
2022/11/15 03:33:03;;;;;;;92.03;39.07;;;4.80;99.90;;;;;;5183107;28;20463;-48
2022/11/15 03:35:39;;;;;;;74.73;39.30;;;4.80;99.90;;;;;;5184317;28;20475;-49
2022/11/15 03:38:23;;;;;;;80.37;40.53;;;4.80;99.90;;;;;;5183771;28;20556;-50
2022/11/15 03:41:05;;;;;;;67.70;38.30;;;4.80;99.90;;;;;;5178889;28;20457;-48
2022/11/15 03:44:04;;;;;;;83.83;41.83;;;4.80;99.90;;;;;;5180325;28;20442;-49
2022/11/15 03:46:51;;;;;;;73.03;39.23;;;4.80;99.90;;;;;;5169629;28;20441;-48
2022/11/15 03:49:30;;;;;;;82.17;39.83;;;4.80;99.90;;;;;;5171754;28;21028;-48
2022/11/15 03:52:03;;;;;;;86.00;40.70;;;4.80;99.90;;;;;;5176728;28;20503;-48
2022/11/15 03:54:34;;;;;;;77.47;40.23;;;4.80;99.90;;;;;;5173281;28;20456;-47
2022/11/15 03:57:05;;;;;;;81.37;38.73;;;4.80;99.90;;;;;;5196404;28;20452;-49
2022/11/15 03:59:35;;;;;;;76.70;39.63;;;4.80;99.90;;;;;;5175937;28;20223;-49
2022/11/15 04:02:06;;;;;;;83.20;38.77;;;4.80;99.90;;;;;;5181013;28;20203;-47
2022/11/15 04:04:36;;;;;;;69.53;38.70;;;4.80;99.90;;;;;;5186387;28;20281;-49
2022/11/15 04:07:07;;;;;;;72.80;38.67;;;4.90;99.90;;;;;;5188324;28;20529;-48
2022/11/15 04:10:01;;;;;;;76.67;39.40;;;4.90;99.90;;;;;;5184042;28;20217;-48
2022/11/15 04:12:33;;;;;;;69.27;36.63;;;4.90;99.90;;;;;;5174412;28;20533;-48
2022/11/15 04:15:07;;;;;;;75.40;39.33;;;4.90;99.90;;;;;;5187487;28;20547;-49
2022/11/15 04:17:44;;;;;;;78.37;37.00;;;4.80;99.90;;;;;;5181580;28;20443;-49
2022/11/15 04:26:09;;;;;;;79.40;37.80;;;4.80;99.90;;;;;;5184720;28;21031;-47
2022/11/15 04:29:34;;;;;;;68.03;37.27;;;4.90;99.90;;;;;;5187468;28;20433;-48
2022/11/15 04:31:31;;;;;;;74.07;37.17;;;4.90;99.90;;;;;;5185996;28;20509;-48
2022/11/15 04:34:01;;;;;;;67.57;35.23;;;4.90;99.90;;;;;;5177715;28;20592;-48
2022/11/15 04:39:21;;;;;;;68.83;37.73;;;4.80;99.90;;;;;;5188695;28;20189;-48
2022/11/15 04:41:52;;;;;;;63.10;34.50;;;4.80;99.90;;;;;;5184062;28;20778;-48
2022/11/15 04:44:22;;;;;;;68.40;36.87;;;4.90;99.90;;;;;;5182634;28;20192;-49
2022/11/15 04:46:53;;;;;;;78.70;36.27;;;4.90;99.90;;;;;;5185325;28;20279;-47
2022/11/15 04:49:23;;;;;;;66.70;35.97;;;4.80;99.90;;;;;;5187321;28;20186;-49
2022/11/15 04:51:54;;;;;;;76.80;38.30;;;4.80;99.90;;;;;;5188561;28;20198;-48
2022/11/15 04:54:25;;;;;;;71.73;37.60;;;4.90;99.90;;;;;;5178526;28;20247;-48
2022/11/15 04:56:55;;;;;;;66.90;36.77;;;4.80;99.90;;;;;;5187727;28;20288;-47
2022/11/15 04:59:26;;;;;;;76.33;38.03;;;4.80;99.90;;;;;;5177045;28;20202;-48
2022/11/15 05:01:57;;;;;;;72.50;38.40;;;4.70;99.90;;;;;;5176665;28;20199;-47
2022/11/15 05:04:27;;;;;;;76.13;36.37;;;4.80;99.90;;;;;;5188321;28;20190;-49
2022/11/15 05:06:58;;;;;;;75.73;40.57;;;4.80;99.90;;;;;;5182795;28;20186;-48
2022/11/15 05:09:28;;;;;;;65.20;36.27;;;4.80;99.90;;;;;;5176091;28;20212;-48
2022/11/15 05:11:59;;;;;;;72.23;36.83;;;4.80;99.90;;;;;;5172364;28;20220;-48
2022/11/15 05:14:29;;;;;;;64.90;37.60;;;4.80;99.90;;;;;;5184810;28;20206;-48
2022/11/15 05:17:00;;;;;;;73.30;37.10;;;4.80;99.90;;;;;;5185378;28;20178;-48
2022/11/15 05:19:31;;;;;;;68.10;37.60;;;4.80;99.90;;;;;;5185782;28;20232;-48
2022/11/15 05:22:01;;;;;;;61.03;33.30;;;4.80;99.90;;;;;;5185282;28;20198;-48
2022/11/15 05:24:32;;;;;;;71.57;36.47;;;4.80;99.90;;;;;;5185948;28;20273;-50
2022/11/15 05:27:02;;;;;;;68.90;35.13;;;4.80;99.90;;;;;;5180337;28;20195;-48
2022/11/15 05:29:33;;;;;;;68.67;36.50;;;4.80;99.90;;;;;;5191662;28;20193;-48
2022/11/15 05:32:06;;;;;;;64.70;36.47;;;4.80;99.90;;;;;;5184812;28;20278;-49
2022/11/15 05:34:37;;;;;;;70.37;37.20;;;4.70;99.90;;;;;;5186648;28;20667;-48
2022/11/15 05:37:07;;;;;;;71.60;37.53;;;4.70;99.90;;;;;;5185258;28;20430;-48
2022/11/15 05:39:38;;;;;;;70.50;37.17;;;4.70;99.90;;;;;;5182037;28;20217;-48
2022/11/15 05:42:13;;;;;;;70.70;38.10;;;4.70;99.90;;;;;;5177997;28;20593;-48
2022/11/15 05:44:48;;;;;;;81.07;37.07;;;4.80;99.90;;;;;;5176360;28;20186;-48
2022/11/15 05:47:25;;;;;;;67.47;36.33;;;4.80;99.90;;;;;;5173236;28;20443;-47
2022/11/15 05:49:56;;;;;;;78.87;36.00;;;4.80;99.90;;;;;;5178400;28;20561;-48
2022/11/15 05:52:31;;;;;;;68.13;38.20;;;4.80;99.90;;;;;;5186217;28;20796;-47
2022/11/15 05:55:04;;;;;;;60.33;35.93;;;4.80;99.90;;;;;;5182998;28;20471;-50
2022/11/15 05:57:34;;;;;;;69.53;35.97;;;4.80;99.90;;;;;;5176917;28;20494;-49
2022/11/15 06:00:06;;;;;;;80.53;36.63;;;4.80;99.90;;;;;;5173825;28;20846;-48
2022/11/15 06:02:36;;;;;;;90.70;39.80;;;4.80;99.90;;;;;;5174400;28;20198;-48
2022/11/15 06:05:07;;;;;;;63.03;35.70;;;4.70;99.90;;;;;;5180653;28;20444;-48
2022/11/15 06:07:38;;;;;;;71.60;36.10;;;4.80;99.90;;;;;;5174449;28;20191;-47
2022/11/15 06:10:09;;;;;;;70.50;35.60;;;4.80;99.90;;;;;;5177054;28;20219;-48
2022/11/15 06:12:39;;;;;;;72.30;38.10;;;4.80;99.90;;;;;;5174468;28;20191;-49
2022/11/15 06:15:10;;;;;;;76.83;39.53;;;4.80;99.90;;;;;;5174418;28;20233;-48
2022/11/15 06:17:40;;;;;;;74.00;38.83;;;4.80;99.90;;;;;;5178420;28;20242;-48
2022/11/15 06:20:11;;;;;;;78.60;38.93;;;4.80;99.90;;;;;;5169393;28;20261;-48
2022/11/15 06:22:42;;;;;;;82.83;39.00;;;4.80;99.90;;;;;;5185808;28;20217;-50
2022/11/15 06:25:12;;;;;;;78.43;39.73;;;4.70;99.90;;;;;;5181889;28;20193;-50
2022/11/15 06:27:43;;;;;;;79.90;39.63;;;4.80;99.90;;;;;;5179283;28;20226;-47
2022/11/15 06:30:14;;;;;;;74.27;38.60;;;4.80;99.90;;;;;;5182936;28;20582;-49
2022/11/15 06:32:44;;;;;;;73.67;39.20;;;4.80;99.90;;;;;;5180607;28;20190;-49
2022/11/15 06:35:15;;;;;;;78.97;39.70;;;4.80;99.90;;;;;;5180397;28;20207;-47
2022/11/15 06:37:46;;;;;;;86.13;38.30;;;4.80;99.90;;;;;;5182260;28;20209;-49
2022/11/15 06:40:16;;;;;;;81.10;40.50;;;4.80;99.90;;;;;;5184963;28;20231;-48
2022/11/15 06:42:47;;;;;;;90.53;38.87;;;4.80;99.90;;;;;;5184886;28;20543;-50
2022/11/15 06:45:17;;;;;;;89.27;41.57;;;4.90;99.90;;;;;;5181537;28;20201;-49
2022/11/15 06:47:48;;;;;;;69.43;38.33;;;4.90;99.90;;;;;;5180271;28;20191;-48
2022/11/15 06:50:19;;;;;;;72.90;39.50;;;4.90;99.90;;;;;;5181392;28;20641;-49
2022/11/15 06:52:49;;;;;;;83.93;39.23;;;5.00;99.90;;;;;;5169654;28;20240;-50
2022/11/15 06:55:20;;;;;;;73.03;40.13;;;5.00;99.90;;;;;;5191885;28;20218;-49
2022/11/15 06:57:52;;;;;;;76.10;40.70;;;5.00;99.90;;;;;;5195415;28;20190;-47
2022/11/15 07:00:23;;;;;;;87.80;40.57;;;5.10;99.90;;;;;;5185055;28;20217;-50
2022/11/15 07:02:53;;;;;;;75.43;39.07;;;5.20;99.90;;;;;;5180786;28;20442;-49
2022/11/15 07:05:24;;;;;;;72.27;39.80;;;5.20;99.90;;;;;;5180756;28;20492;-50
2022/11/15 07:07:56;;;;;;;68.13;36.10;;;5.20;99.90;;;;;;5183065;28;20207;-48
2022/11/15 07:10:27;;;;;;;64.63;36.97;;;5.20;99.90;;;;;;5167596;28;20211;-48
2022/11/15 07:12:58;;;;;;;77.73;37.60;;;5.30;99.90;;;;;;5182418;28;20481;-47
2022/11/15 07:15:28;;;;;;;68.93;36.73;;;5.30;99.90;;;;;;5172317;28;20505;-50
2022/11/15 07:18:02;;;;;;;68.20;33.87;;;5.30;99.90;;;;;;5183890;28;20707;-48
2022/11/15 07:20:33;;;;;;;63.17;34.13;;;5.50;99.90;;;;;;5182630;28;20257;-48
2022/11/15 07:23:05;;;;;;;61.77;35.67;;;5.50;99.90;;;;;;5183411;28;20421;-48
2022/11/15 07:25:35;;;;;;;58.67;33.57;;;5.50;99.90;;;;;;5182620;28;20190;-48
2022/11/15 07:28:06;;;;;;;56.07;33.97;;;5.60;99.90;;;;;;5182317;28;20805;-48
2022/11/15 07:30:37;;;;;;;70.53;34.40;;;5.60;99.90;;;;;;5183765;28;20228;-52
2022/11/15 07:33:07;;;;;;;61.70;34.30;;;5.70;99.90;;;;;;5180294;28;20188;-48
2022/11/15 07:35:38;;;;;;;70.57;34.67;;;5.70;99.90;;;;;;5183581;28;20233;-50
2022/11/15 07:38:08;;;;;;;58.03;33.60;;;5.80;99.90;;;;;;5176437;28;20188;-50
2022/11/15 07:40:39;;;;;;;59.83;33.40;;;5.80;99.90;;;;;;5183663;28;20214;-50
2022/11/15 07:43:10;;;;;;;60.43;32.50;;;5.90;99.90;;;;;;5167145;28;20194;-48
2022/11/15 07:45:42;;;;;;;59.97;31.73;;;5.90;99.90;;;;;;5179733;28;20203;-50
2022/11/15 07:48:13;;;;;;;67.10;33.17;;;6.00;99.90;;;;;;5177163;28;20571;-49
2022/11/15 07:50:44;;;;;;;65.97;32.53;;;6.10;99.90;;;;;;5183536;28;20466;-49
2022/11/15 07:53:14;;;;;;;57.87;32.30;;;6.20;99.90;;;;;;5181569;28;20736;-49
2022/11/15 07:55:45;;;;;;;59.70;33.30;;;6.20;99.90;;;;;;5178449;28;20215;-50
2022/11/15 07:58:16;;;;;;;59.33;32.17;;;6.30;99.90;;;;;;5170509;28;20623;-48
2022/11/15 08:00:46;;;;;;;52.37;31.33;;;6.30;99.90;;;;;;5177220;28;20208;-49
2022/11/15 08:03:17;;;;;;;66.53;33.30;;;6.40;99.90;;;;;;5171226;28;20188;-49
2022/11/15 08:05:51;;;;;;;52.13;29.40;;;6.50;99.90;;;;;;5172942;28;20541;-51
2022/11/15 08:08:22;;;;;;;60.73;31.70;;;6.60;99.90;;;;;;5182251;28;20801;-48
2022/11/15 08:10:53;;;;;;;55.40;30.90;;;6.70;99.90;;;;;;5173860;28;20473;-48
2022/11/15 08:13:23;;;;;;;58.87;30.97;;;6.70;99.90;;;;;;5163754;28;20197;-49
2022/11/15 08:16:02;;;;;;;61.33;33.13;;;6.80;99.90;;;;;;5168732;28;20319;-47
2022/11/15 08:18:33;;;;;;;53.53;29.60;;;6.80;99.90;;;;;;5180148;28;20189;-49
2022/11/15 08:21:04;;;;;;;61.47;31.50;;;6.90;99.90;;;;;;5180431;28;20836;-49
2022/11/15 08:23:34;;;;;;;58.53;31.33;;;7.00;99.90;;;;;;5180207;28;20185;-48
2022/11/15 08:26:05;;;;;;;54.00;30.67;;;7.10;99.90;;;;;;5183456;28;20188;-49
2022/11/15 08:28:36;;;;;;;46.60;28.17;;;7.20;99.90;;;;;;5184887;28;20184;-48
2022/11/15 08:31:06;;;;;;;49.30;27.50;;;7.30;99.90;;;;;;5177090;28;20263;-48
2022/11/15 08:33:37;;;;;;;46.50;27.30;;;7.30;99.90;;;;;;5183886;28;20199;-49
2022/11/15 08:36:16;;;;;;;42.77;25.63;;;7.40;99.90;;;;;;5175184;28;20208;-49
2022/11/15 08:38:46;;;;;;;62.37;28.57;;;7.50;99.90;;;;;;5183663;28;20211;-48
2022/11/15 08:41:30;;;;;;;42.33;27.70;;;7.60;99.90;;;;;;5182612;28;20884;-47
2022/11/15 08:44:01;;;;;;;44.53;25.73;;;7.70;99.90;;;;;;5173173;28;20180;-49
2022/11/15 08:46:31;;;;;;;50.60;26.83;;;7.70;99.90;;;;;;5177394;28;20920;-49
2022/11/15 08:49:02;;;;;;;40.30;25.13;;;7.70;99.90;;;;;;5177598;28;20629;-48
2022/11/15 08:51:33;;;;;;;38.67;25.07;;;7.80;99.90;;;;;;5177786;28;20291;-48
2022/11/15 08:54:03;;;;;;;44.97;25.90;;;8.00;99.90;;;;;;5189983;28;20621;-49
2022/11/15 08:56:34;;;;;;;42.90;24.63;;;8.10;99.90;;;;;;5170746;28;20183;-49
2022/11/15 08:59:04;;;;;;;39.20;24.23;;;8.20;99.90;;;;;;5183928;28;20185;-50
2022/11/15 09:01:35;;;;;;;35.23;22.83;;;8.30;99.90;;;;;;5183020;28;20228;-50
2022/11/15 09:04:06;;;;;;;36.33;23.80;;;8.30;99.90;;;;;;5182245;28;20180;-51
2022/11/15 09:06:36;;;;;;;38.87;22.80;;;8.30;99.90;;;;;;5186449;28;20672;-51
2022/11/15 09:09:07;;;;;;;39.57;23.40;;;8.40;99.90;;;;;;5186638;28;20194;-49
2022/11/15 09:11:38;;;;;;;42.43;23.37;;;8.60;99.90;;;;;;5177108;28;20266;-50
2022/11/15 09:14:14;;;;;;;39.03;22.80;;;8.60;99.90;;;;;;5181627;28;20180;-48
2022/11/15 09:16:44;;;;;;;37.40;22.03;;;8.90;99.90;;;;;;5177665;28;20241;-49
2022/11/15 09:19:15;;;;;;;40.13;22.47;;;8.80;99.90;;;;;;5186051;28;20431;-50
2022/11/15 09:21:46;;;;;;;45.23;24.37;;;8.80;99.90;;;;;;5185277;28;20247;-50
2022/11/15 09:24:17;;;;;;;35.33;22.80;;;8.90;99.90;;;;;;5183748;28;20299;-48
2022/11/15 09:26:51;;;;;;;35.83;20.57;;;9.10;99.90;;;;;;5181423;28;20185;-48
2022/11/15 09:29:21;;;;;;;35.13;23.27;;;9.10;99.90;;;;;;5184661;28;20419;-50
2022/11/15 09:31:52;;;;;;;44.63;22.63;;;9.10;99.90;;;;;;5180903;28;20792;-49
2022/11/15 09:34:23;;;;;;;39.83;22.43;;;9.20;99.90;;;;;;5186785;28;20211;-51
2022/11/15 09:36:54;;;;;;;32.87;19.73;;;9.20;99.90;;;;;;5186518;28;20841;-48
2022/11/15 09:39:24;;;;;;;39.40;22.07;;;9.30;99.90;;;;;;5187222;28;20185;-49
2022/11/15 09:42:12;;;;;;;31.20;20.03;;;9.20;99.90;;;;;;5185232;28;20184;-49
2022/11/15 09:45:08;;;;;;;38.00;21.47;;;9.40;99.90;;;;;;5183227;28;20192;-50
2022/11/15 09:48:04;;;;;;;32.23;21.73;;;9.40;99.90;;;;;;5174220;28;20432;-52
2022/11/15 09:50:53;;;;;;;35.50;22.40;;;9.50;99.90;;;;;;5172458;28;20928;-48
2022/11/15 09:53:48;;;;;;;31.53;21.13;;;9.70;99.90;;;;;;5184117;28;20447;-49
2022/11/15 09:56:26;;;;;;;34.50;22.20;;;9.70;99.90;;;;;;5186914;28;20477;-50
2022/11/15 09:59:07;;;;;;;31.03;18.20;;;9.80;99.90;;;;;;5183026;28;20824;-49
2022/11/15 10:02:21;;;;;;;29.47;17.77;;;9.90;99.90;;;;;;5181133;28;20459;-48
2022/11/15 10:04:53;;;;;;;32.50;19.60;;;9.90;99.90;;;;;;5182229;28;20473;-49
2022/11/15 10:07:33;;;;;;;28.20;18.60;;;9.90;99.90;;;;;;5184426;28;20469;-52
2022/11/15 10:10:19;;;;;;;27.07;18.20;;;10.00;99.90;;;;;;5173235;28;20459;-53
2022/11/15 10:12:51;;;;;;;29.20;18.80;;;10.20;99.90;;;;;;5178358;28;20442;-50
2022/11/15 10:15:24;;;;;;;30.10;18.80;;;10.30;99.90;;;;;;5179065;28;20467;-50
2022/11/15 10:18:35;;;;;;;23.00;16.33;;;10.50;99.90;;;;;;5171391;28;20470;-52
2022/11/15 10:21:17;;;;;;;25.57;16.87;;;10.60;99.90;;;;;;5187411;22;20533;-50
2022/11/15 10:23:50;;;;;;;26.70;16.33;;;10.60;99.90;;;;;;5177170;28;20440;-51
2022/11/15 10:26:23;;;;;;;31.97;17.00;;;10.60;99.90;;;;;;5175095;28;20812;-50
2022/11/15 10:28:54;;;;;;;27.87;15.90;;;10.60;99.90;;;;;;5184768;28;21351;-50
2022/11/15 10:31:27;;;;;;;26.70;18.60;;;10.70;99.90;;;;;;5183620;28;20464;-50
2022/11/15 10:34:18;;;;;;;31.13;16.47;;;10.70;99.90;;;;;;5155748;28;20188;-49
2022/11/15 10:36:58;;;;;;;28.80;18.43;;;10.80;99.90;;;;;;5182592;28;20603;-49
2022/11/15 10:39:28;;;;;;;21.80;14.90;;;10.80;99.90;;;;;;5180538;28;20542;-49
2022/11/15 10:42:25;;;;;;;24.80;15.90;;;10.80;99.90;;;;;;5184210;28;20558;-49
2022/11/15 10:44:55;;;;;;;23.47;15.80;;;10.90;99.90;;;;;;5182295;28;20554;-50
2022/11/15 10:47:30;;;;;;;23.90;14.43;;;11.00;99.90;;;;;;5185077;28;20419;-50
2022/11/15 10:50:05;;;;;;;36.83;15.97;;;11.10;99.90;;;;;;5182625;28;20180;-50
2022/11/15 10:52:44;;;;;;;29.67;17.87;;;11.20;99.90;;;;;;5183742;28;20810;-51
2022/11/15 10:55:15;;;;;;;31.27;16.70;;;11.10;99.90;;;;;;5177483;28;20469;-50
2022/11/15 10:58:19;;;;;;;26.23;16.80;;;11.20;99.90;;;;;;5180848;28;20431;-50
2022/11/15 11:00:53;;;;;;;26.13;16.97;;;11.20;99.90;;;;;;5183415;28;20207;-49
2022/11/15 11:03:29;;;;;;;26.27;16.67;;;11.30;99.90;;;;;;5183798;28;20549;-51
2022/11/15 11:06:10;;;;;;;27.10;16.77;;;11.40;99.90;;;;;;5182185;28;20639;-51
2022/11/15 11:08:56;;;;;;;26.80;15.60;;;11.30;99.90;;;;;;5181713;28;20404;-51
2022/11/15 11:11:48;;;;;;;32.10;18.67;;;11.40;99.90;;;;;;5178216;28;20455;-52
2022/11/15 11:14:31;;;;;;;28.50;17.37;;;11.40;99.90;;;;;;5182216;28;20518;-50
2022/11/15 11:17:34;;;;;;;31.40;17.50;;;11.40;99.90;;;;;;5186098;28;20431;-51
2022/11/15 11:20:20;;;;;;;28.60;17.70;;;11.70;99.90;;;;;;5173328;28;20954;-49
2022/11/15 11:23:19;;;;;;;25.77;15.93;;;11.70;99.90;;;;;;5180961;28;20446;-49
2022/11/15 11:25:56;;;;;;;27.83;16.03;;;11.80;99.90;;;;;;5182354;28;20527;-50
2022/11/15 11:29:00;;;;;;;24.07;16.63;;;11.70;99.90;;;;;;5183370;28;20442;-50
2022/11/15 11:31:43;;;;;;;20.80;15.27;;;11.80;99.90;;;;;;5181003;28;20447;-50
2022/11/15 11:34:31;;;;;;;29.77;16.03;;;11.90;99.90;;;;;;5174088;28;20497;-50
2022/11/15 11:37:20;;;;;;;23.67;15.77;;;12.00;99.90;;;;;;5180654;28;20446;-50
2022/11/15 11:40:14;;;;;;;26.43;16.80;;;12.00;99.90;;;;;;5180155;28;20436;-51
2022/11/15 11:43:01;;;;;;;19.87;13.53;;;12.10;99.90;;;;;;5166417;28;20440;-50
2022/11/15 11:45:37;;;;;;;34.03;16.23;;;12.10;99.90;;;;;;5173197;28;20922;-50
2022/11/15 11:48:31;;;;;;;21.93;14.90;;;12.20;99.90;;;;;;5184141;28;20861;-50
2022/11/15 11:51:34;;;;;;;31.47;16.03;;;12.20;99.90;;;;;;5178413;28;20452;-50
2022/11/15 11:54:14;;;;;;;21.70;14.90;;;12.00;99.90;;;;;;5177801;28;20943;-50
2022/11/15 11:56:45;;;;;;;23.30;15.67;;;12.10;99.90;;;;;;5183999;28;20472;-51
2022/11/15 12:00:00;;;;;;;23.80;16.30;;;12.00;99.90;;;;;;5176121;28;20442;-51
2022/11/15 12:02:41;;;;;;;23.70;14.50;;;12.00;99.90;;;;;;5141714;28;20452;-50
2022/11/15 12:05:31;;;;;;;25.07;16.30;;;12.00;99.90;;;;;;5171645;28;20486;-51
2022/11/15 12:08:30;;;;;;;24.07;16.37;;;12.00;99.90;;;;;;5183941;28;20803;-50
2022/11/15 12:11:09;;;;;;;28.83;16.60;;;12.00;99.90;;;;;;5175846;28;20481;-51
2022/11/15 12:13:42;;;;;;;21.43;14.67;;;12.00;99.90;;;;;;5180691;28;20442;-49
2022/11/15 12:16:27;;;;;;;25.17;14.67;;;12.00;99.90;;;;;;5178810;28;20572;-50
2022/11/15 12:19:03;;;;;;;18.47;13.17;;;12.00;99.90;;;;;;5177326;28;20761;-49
2022/11/15 12:21:34;;;;;;;23.87;15.70;;;12.10;99.90;;;;;;5181780;28;21041;-50
2022/11/15 12:24:31;;;;;;;22.07;15.30;;;12.10;99.90;;;;;;5180542;28;20512;-50
2022/11/15 12:27:17;;;;;;;23.13;15.13;;;12.20;99.90;;;;;;5188402;28;20409;-50
2022/11/15 12:29:52;;;;;;;22.83;14.23;;;12.20;99.90;;;;;;5185867;28;20503;-50
2022/11/15 12:32:34;;;;;;;26.53;14.50;;;12.10;99.90;;;;;;5185566;28;20453;-51
2022/11/15 12:35:39;;;;;;;28.87;16.53;;;12.20;99.90;;;;;;5183831;28;20466;-51
2022/11/15 12:38:12;;;;;;;27.73;15.37;;;12.20;99.90;;;;;;5180343;28;20545;-50
2022/11/15 12:41:15;;;;;;;25.10;16.30;;;12.20;99.90;;;;;;5175640;28;20458;-50
2022/11/15 12:43:48;;;;;;;25.13;15.63;;;12.20;99.90;;;;;;5185478;28;20529;-50
2022/11/15 12:46:30;;;;;;;31.70;17.33;;;12.20;99.90;;;;;;5183291;28;20838;-49
2022/11/15 12:49:07;;;;;;;19.97;14.70;;;12.20;99.90;;;;;;5187421;28;20446;-49
2022/11/15 12:51:47;;;;;;;24.70;15.20;;;12.20;99.90;;;;;;5185775;28;21012;-50
2022/11/15 12:54:24;;;;;;;20.87;15.40;;;12.20;99.90;;;;;;5176526;28;20436;-50
2022/11/15 12:57:04;;;;;;;26.30;14.77;;;12.10;99.90;;;;;;5186281;28;20411;-50
2022/11/15 13:00:17;;;;;;;24.13;15.60;;;12.20;99.90;;;;;;5183592;28;20750;-50
2022/11/15 13:02:48;;;;;;;23.33;14.50;;;12.10;99.90;;;;;;5178279;28;20477;-50
2022/11/15 13:05:39;;;;;;;27.63;15.53;;;12.20;99.90;;;;;;5176846;28;20439;-49
2022/11/15 13:08:29;;;;;;;25.50;15.23;;;12.20;99.90;;;;;;5186035;28;20447;-51
2022/11/15 13:11:38;;;;;;;25.40;13.53;;;12.30;99.90;;;;;;5173827;28;20550;-51
2022/11/15 13:14:36;;;;;;;30.23;16.00;;;12.30;99.90;;;;;;5184737;28;20573;-50
2022/11/15 13:17:19;;;;;;;32.33;16.03;;;12.30;99.90;;;;;;5182700;28;20439;-50
2022/11/15 13:20:10;;;;;;;24.47;15.00;;;12.30;99.90;;;;;;5176020;28;20996;-53
2022/11/15 13:22:51;;;;;;;34.87;14.33;;;12.30;99.90;;;;;;5176515;28;20521;-49
2022/11/15 13:25:39;;;;;;;23.43;13.10;;;12.30;99.90;;;;;;5177454;28;20435;-51
2022/11/15 13:28:16;;;;;;;26.03;15.00;;;12.40;99.90;;;;;;5177708;28;20458;-50
2022/11/15 13:30:46;;;;;;;22.13;14.67;;;12.40;99.90;;;;;;5185441;28;20454;-51